createdAt,value
2017-10-13T00:00:56.148Z,0
2017-10-13T00:02:05.002Z,0
2017-10-13T00:03:13.869Z,0
2017-10-13T00:04:22.995Z,0
2017-10-13T00:05:31.829Z,0
2017-10-13T00:06:40.663Z,0
2017-10-13T00:07:49.495Z,0
2017-10-13T00:08:58.327Z,0
2017-10-13T00:10:07.158Z,0
2017-10-13T00:11:15.999Z,0
2017-10-13T00:12:24.833Z,0
2017-10-13T00:13:33.666Z,0
2017-10-13T00:14:42.498Z,0
2017-10-13T00:15:51.343Z,0
2017-10-13T00:17:00.182Z,0
2017-10-13T00:18:09.411Z,0
2017-10-13T00:19:18.307Z,0
2017-10-13T00:20:27.140Z,0
2017-10-13T00:21:35.978Z,0
2017-10-13T00:22:44.826Z,0
2017-10-13T00:23:53.725Z,0
2017-10-13T00:25:02.564Z,0
2017-10-13T00:26:11.734Z,0
2017-10-13T00:27:20.945Z,0
2017-10-13T00:28:29.785Z,0
2017-10-13T00:29:39.443Z,0
2017-10-13T00:30:48.380Z,0
2017-10-13T00:31:57.590Z,0
2017-10-13T00:33:06.626Z,0
2017-10-13T00:34:15.457Z,0
2017-10-13T00:35:24.289Z,0
2017-10-13T00:36:33.124Z,0
2017-10-13T00:37:41.952Z,0
2017-10-13T00:38:50.797Z,0
2017-10-13T00:40:00.023Z,0
2017-10-13T00:41:09.209Z,0
2017-10-13T00:42:18.511Z,0
2017-10-13T00:43:27.392Z,0
2017-10-13T00:44:36.222Z,0
2017-10-13T00:45:45.084Z,0
2017-10-13T00:46:53.939Z,0
2017-10-13T00:48:02.767Z,0
2017-10-13T00:49:11.599Z,0
2017-10-13T00:50:20.436Z,0
2017-10-13T00:51:29.267Z,0
2017-10-13T00:52:38.102Z,0
2017-10-13T00:53:46.943Z,0
2017-10-13T00:54:55.792Z,0
2017-10-13T00:56:04.620Z,0
2017-10-13T00:57:13.456Z,0
2017-10-13T00:58:22.286Z,0
2017-10-13T00:59:31.123Z,0
2017-10-13T01:00:39.953Z,0
2017-10-13T01:01:48.787Z,0
2017-10-13T01:02:57.616Z,0
2017-10-13T01:04:06.454Z,0
2017-10-13T01:05:15.291Z,0
2017-10-13T01:06:24.562Z,0
2017-10-13T01:07:33.493Z,0
2017-10-13T01:08:42.324Z,0
2017-10-13T01:09:51.157Z,0
2017-10-13T01:11:00.121Z,0
2017-10-13T01:12:08.958Z,0
2017-10-13T01:13:17.874Z,0
2017-10-13T01:14:26.716Z,0
2017-10-13T01:15:36.979Z,0
2017-10-13T01:16:46.254Z,0
2017-10-13T01:17:55.942Z,0
2017-10-13T01:19:05.554Z,0
2017-10-13T01:20:15.471Z,0
2017-10-13T01:21:25.211Z,0
2017-10-13T01:22:35.509Z,0
2017-10-13T01:23:45.282Z,0
2017-10-13T01:24:54.419Z,0
2017-10-13T01:26:03.942Z,0
2017-10-13T01:27:13.075Z,0
2017-10-13T01:28:22.929Z,0
2017-10-13T01:29:32.136Z,0
2017-10-13T01:30:41.396Z,0
2017-10-13T01:31:50.661Z,0
2017-10-13T01:33:00.676Z,0
2017-10-13T01:34:10.085Z,0
2017-10-13T01:35:19.584Z,0
2017-10-13T01:36:28.843Z,0
2017-10-13T01:37:39.107Z,0
2017-10-13T01:38:49.061Z,0
2017-10-13T01:39:58.188Z,0
2017-10-13T01:41:07.742Z,0
2017-10-13T01:42:16.650Z,0
2017-10-13T01:43:25.484Z,0
2017-10-13T01:44:34.312Z,0
2017-10-13T01:45:43.144Z,0
2017-10-13T01:46:51.982Z,0
2017-10-13T01:48:00.813Z,0
2017-10-13T01:49:09.826Z,0
2017-10-13T01:50:18.664Z,0
2017-10-13T01:51:27.495Z,0
2017-10-13T01:52:36.330Z,0
2017-10-13T01:53:45.177Z,0
2017-10-13T01:54:54.021Z,0
2017-10-13T01:56:03.560Z,0
2017-10-13T01:57:12.398Z,0
2017-10-13T01:58:21.228Z,0
2017-10-13T01:59:30.064Z,0
2017-10-13T02:00:38.901Z,0
2017-10-13T02:01:47.756Z,0
2017-10-13T02:02:56.822Z,0
2017-10-13T02:04:05.794Z,0
2017-10-13T02:05:14.663Z,0
2017-10-13T02:06:23.566Z,0
2017-10-13T02:07:32.464Z,0
2017-10-13T02:08:41.631Z,0
2017-10-13T02:09:50.574Z,0
2017-10-13T02:10:59.568Z,0
2017-10-13T02:12:08.400Z,0
2017-10-13T02:13:17.232Z,0
2017-10-13T02:14:26.073Z,0
2017-10-13T02:15:34.909Z,0
2017-10-13T02:16:43.742Z,0
2017-10-13T02:17:52.579Z,0
2017-10-13T02:19:01.417Z,0
2017-10-13T02:20:10.252Z,0
2017-10-13T02:21:19.276Z,0
2017-10-13T02:22:28.521Z,0
2017-10-13T02:23:37.401Z,0
2017-10-13T02:24:46.295Z,0
2017-10-13T02:25:55.282Z,0
2017-10-13T02:27:04.501Z,0
2017-10-13T02:28:13.371Z,0
2017-10-13T02:29:22.265Z,0
2017-10-13T02:30:31.099Z,0
2017-10-13T02:31:39.950Z,0
2017-10-13T02:32:48.787Z,0
2017-10-13T02:33:57.920Z,0
2017-10-13T02:35:07.091Z,0
2017-10-13T02:36:15.934Z,0
2017-10-13T02:37:25.100Z,0
2017-10-13T02:38:35.139Z,0
2017-10-13T02:39:43.994Z,0
2017-10-13T02:40:52.827Z,0
2017-10-13T02:42:01.663Z,0
2017-10-13T02:43:10.497Z,0
2017-10-13T02:44:19.336Z,0
2017-10-13T02:45:28.169Z,0
2017-10-13T02:46:37.130Z,0
2017-10-13T02:47:46.017Z,0
2017-10-13T02:48:54.883Z,0
2017-10-13T02:50:03.718Z,0
2017-10-13T02:51:13.545Z,0
2017-10-13T02:52:22.827Z,0
2017-10-13T02:53:31.900Z,0
2017-10-13T02:54:40.736Z,0
2017-10-13T02:55:49.573Z,0
2017-10-13T02:56:58.464Z,0
2017-10-13T02:58:07.358Z,0
2017-10-13T02:59:16.244Z,0
2017-10-13T03:00:25.114Z,0
2017-10-13T03:01:33.949Z,0
2017-10-13T03:02:42.787Z,0
2017-10-13T03:03:51.617Z,0
2017-10-13T03:05:00.449Z,0
2017-10-13T03:06:09.282Z,0
2017-10-13T03:07:18.162Z,0
2017-10-13T03:08:27.850Z,0
2017-10-13T03:09:37.605Z,0
2017-10-13T03:10:46.820Z,0
2017-10-13T03:11:55.745Z,0
2017-10-13T03:13:05.167Z,0
2017-10-13T03:14:14.342Z,0
2017-10-13T03:15:23.534Z,0
2017-10-13T03:16:32.362Z,0
2017-10-13T03:17:41.199Z,0
2017-10-13T03:18:50.031Z,0
2017-10-13T03:19:58.913Z,0
2017-10-13T03:21:08.290Z,0
2017-10-13T03:22:17.131Z,0
2017-10-13T03:23:26.041Z,0
2017-10-13T03:24:34.927Z,0
2017-10-13T03:25:44.150Z,0
2017-10-13T03:26:53.020Z,0
2017-10-13T03:28:02.058Z,0
2017-10-13T03:29:10.933Z,0
2017-10-13T03:30:19.764Z,0
2017-10-13T03:31:28.632Z,0
2017-10-13T03:32:37.624Z,0
2017-10-13T03:33:46.522Z,0
2017-10-13T03:34:55.356Z,0
2017-10-13T03:36:04.669Z,0
2017-10-13T03:37:13.617Z,0
2017-10-13T03:38:22.487Z,0
2017-10-13T03:39:31.447Z,0
2017-10-13T03:40:40.723Z,0
2017-10-13T03:41:49.650Z,0
2017-10-13T03:42:58.660Z,0
2017-10-13T03:44:07.558Z,0
2017-10-13T03:45:16.410Z,0
2017-10-13T03:46:25.582Z,0
2017-10-13T03:47:34.518Z,0
2017-10-13T03:48:43.627Z,0
2017-10-13T03:49:52.614Z,0
2017-10-13T03:51:01.583Z,0
2017-10-13T03:52:10.483Z,0
2017-10-13T03:53:20.054Z,0
2017-10-13T03:54:28.964Z,0
2017-10-13T03:55:38.050Z,0
2017-10-13T03:56:47.411Z,0
2017-10-13T03:57:57.097Z,0
2017-10-13T03:59:06.149Z,0
2017-10-13T04:00:15.120Z,0
2017-10-13T04:01:24.051Z,0
2017-10-13T04:02:32.953Z,0
2017-10-13T04:03:42.042Z,0
2017-10-13T04:04:50.872Z,0
2017-10-13T04:06:00.438Z,0
2017-10-13T04:07:09.609Z,0
2017-10-13T04:08:18.471Z,0
2017-10-13T04:09:27.358Z,0
2017-10-13T04:10:36.759Z,0
2017-10-13T04:11:46.012Z,0
2017-10-13T04:12:55.109Z,0
2017-10-13T04:14:03.985Z,0
2017-10-13T04:15:13.249Z,0
2017-10-13T04:16:23.181Z,0
2017-10-13T04:17:32.469Z,0
2017-10-13T04:18:41.819Z,0
2017-10-13T04:19:51.349Z,0
2017-10-13T04:21:00.286Z,0
2017-10-13T04:22:09.221Z,0
2017-10-13T04:23:18.408Z,0
2017-10-13T04:24:27.631Z,0
2017-10-13T04:25:36.529Z,0
2017-10-13T04:26:45.423Z,0
2017-10-13T04:27:54.443Z,0
2017-10-13T04:29:03.457Z,0
2017-10-13T04:30:12.505Z,0
2017-10-13T04:31:21.434Z,0
2017-10-13T04:32:30.327Z,0
2017-10-13T04:33:39.496Z,0
2017-10-13T04:34:48.705Z,0
2017-10-13T04:35:57.564Z,0
2017-10-13T04:37:06.486Z,0
2017-10-13T04:38:15.397Z,0
2017-10-13T04:39:24.475Z,0
2017-10-13T04:40:33.324Z,0
2017-10-13T04:41:42.556Z,0
2017-10-13T04:42:51.448Z,0
2017-10-13T04:44:00.315Z,0
2017-10-13T04:45:09.378Z,0
2017-10-13T04:46:18.606Z,0
2017-10-13T04:47:27.498Z,0
2017-10-13T04:48:36.447Z,0
2017-10-13T04:49:45.655Z,0
2017-10-13T04:50:54.526Z,0
2017-10-13T04:52:03.541Z,0
2017-10-13T04:53:12.441Z,0
2017-10-13T04:54:21.427Z,0
2017-10-13T04:55:30.263Z,0
2017-10-13T04:56:39.249Z,0
2017-10-13T04:57:48.220Z,0
2017-10-13T04:58:57.401Z,0
2017-10-13T05:00:06.319Z,0
2017-10-13T05:01:15.304Z,0
2017-10-13T05:02:25.300Z,0
2017-10-13T05:03:34.238Z,0
2017-10-13T05:04:43.134Z,0
2017-10-13T05:05:52.051Z,0
2017-10-13T05:07:01.059Z,0
2017-10-13T05:08:09.946Z,0
2017-10-13T05:09:19.482Z,0
2017-10-13T05:10:28.657Z,0
2017-10-13T05:11:37.529Z,0
2017-10-13T05:12:46.410Z,0
2017-10-13T05:13:55.365Z,0
2017-10-13T05:15:04.203Z,0
2017-10-13T05:16:13.084Z,0
2017-10-13T05:17:22.261Z,0
2017-10-13T05:18:31.190Z,0
2017-10-13T05:19:40.045Z,0
2017-10-13T05:20:49.813Z,0
2017-10-13T05:21:59.407Z,0
2017-10-13T05:23:08.448Z,0
2017-10-13T05:24:17.620Z,0
2017-10-13T05:25:26.847Z,0
2017-10-13T05:26:36.043Z,0
2017-10-13T05:27:44.937Z,0
2017-10-13T05:28:53.910Z,0
2017-10-13T05:30:02.812Z,0
2017-10-13T05:31:11.773Z,0
2017-10-13T05:32:20.623Z,0
2017-10-13T05:33:29.643Z,0
2017-10-13T05:34:38.881Z,0
2017-10-13T05:35:47.820Z,0
2017-10-13T05:36:56.748Z,0
2017-10-13T05:38:05.628Z,0
2017-10-13T05:39:14.522Z,0
2017-10-13T05:40:23.704Z,0
2017-10-13T05:41:32.643Z,0
2017-10-13T05:42:41.584Z,0
2017-10-13T05:43:51.054Z,0
2017-10-13T05:44:59.941Z,0
2017-10-13T05:46:08.964Z,0
2017-10-13T05:47:17.817Z,0
2017-10-13T05:48:26.808Z,0
2017-10-13T05:49:35.648Z,5
2017-10-13T05:50:44.486Z,5
2017-10-13T05:51:53.320Z,5
2017-10-13T05:53:02.164Z,5
2017-10-13T05:54:11.003Z,5
2017-10-13T05:55:19.844Z,5
2017-10-13T05:56:28.677Z,5
2017-10-13T05:57:37.513Z,5
2017-10-13T05:58:46.351Z,5
2017-10-13T05:59:55.190Z,5
2017-10-13T06:01:04.032Z,5
2017-10-13T06:02:12.861Z,5
2017-10-13T06:03:21.697Z,5
2017-10-13T06:04:30.884Z,5
2017-10-13T06:05:39.715Z,5
2017-10-13T06:06:48.553Z,5
2017-10-13T06:07:57.389Z,5
2017-10-13T06:09:06.227Z,5
2017-10-13T06:10:15.065Z,10
2017-10-13T06:11:23.905Z,10
2017-10-13T06:12:32.744Z,10
2017-10-13T06:13:41.578Z,10
2017-10-13T06:14:50.416Z,10
2017-10-13T06:15:59.248Z,10
2017-10-13T06:17:08.091Z,10
2017-10-13T06:18:16.929Z,10
2017-10-13T06:19:25.762Z,10
2017-10-13T06:20:34.596Z,10
2017-10-13T06:21:43.436Z,15
2017-10-13T06:22:52.271Z,15
2017-10-13T06:24:01.109Z,15
2017-10-13T06:25:09.947Z,15
2017-10-13T06:26:18.779Z,15
2017-10-13T06:27:27.617Z,15
2017-10-13T06:28:36.461Z,15
2017-10-13T06:29:45.294Z,15
2017-10-13T06:30:54.133Z,15
2017-10-13T06:32:02.970Z,15
2017-10-13T06:33:11.811Z,15
2017-10-13T06:34:20.653Z,15
2017-10-13T06:35:29.492Z,15
2017-10-13T06:36:38.332Z,15
2017-10-13T06:37:47.171Z,15
2017-10-13T06:38:56.009Z,20
2017-10-13T06:40:04.844Z,20
2017-10-13T06:41:13.682Z,20
2017-10-13T06:42:22.518Z,20
2017-10-13T06:43:31.356Z,20
2017-10-13T06:44:40.197Z,20
2017-10-13T06:45:49.038Z,20
2017-10-13T06:46:57.882Z,20
2017-10-13T06:48:06.710Z,20
2017-10-13T06:49:15.552Z,20
2017-10-13T06:50:24.392Z,20
2017-10-13T06:51:33.228Z,20
2017-10-13T06:52:42.065Z,20
2017-10-13T06:53:50.906Z,20
2017-10-13T06:54:59.741Z,20
2017-10-13T06:56:08.584Z,20
2017-10-13T06:57:17.420Z,20
2017-10-13T06:58:26.253Z,20
2017-10-13T06:59:35.095Z,20
2017-10-13T07:00:43.930Z,20
2017-10-13T07:01:52.772Z,20
2017-10-13T07:03:01.608Z,15
2017-10-13T07:04:10.786Z,15
2017-10-13T07:05:19.616Z,15
2017-10-13T07:06:28.460Z,15
2017-10-13T07:07:37.294Z,20
2017-10-13T07:08:46.141Z,20
2017-10-13T07:09:54.976Z,20
2017-10-13T07:11:03.818Z,20
2017-10-13T07:12:12.653Z,20
2017-10-13T07:13:21.493Z,20
2017-10-13T07:14:30.331Z,20
2017-10-13T07:15:39.167Z,20
2017-10-13T07:16:48.005Z,20
2017-10-13T07:17:56.847Z,20
2017-10-13T07:19:05.683Z,20
2017-10-13T07:20:14.523Z,20
2017-10-13T07:21:23.361Z,20
2017-10-13T07:22:32.197Z,20
2017-10-13T07:23:41.035Z,20
2017-10-13T07:24:49.874Z,20
2017-10-13T07:25:58.710Z,25
2017-10-13T07:27:07.543Z,25
2017-10-13T07:28:16.385Z,25
2017-10-13T07:29:25.220Z,25
2017-10-13T07:30:34.074Z,30
2017-10-13T07:31:42.906Z,30
2017-10-13T07:32:51.741Z,35
2017-10-13T07:34:00.578Z,35
2017-10-13T07:35:09.416Z,40
2017-10-13T07:36:18.253Z,40
2017-10-13T07:37:27.091Z,40
2017-10-13T07:38:35.935Z,40
2017-10-13T07:39:44.765Z,40
2017-10-13T07:40:53.606Z,40
2017-10-13T07:42:02.448Z,40
2017-10-13T07:43:11.280Z,40
2017-10-13T07:44:20.122Z,40
2017-10-13T07:45:28.957Z,45
2017-10-13T07:46:37.797Z,45
2017-10-13T07:47:46.634Z,45
2017-10-13T07:48:55.482Z,45
2017-10-13T07:50:04.318Z,45
2017-10-13T07:51:13.158Z,45
2017-10-13T07:52:21.998Z,45
2017-10-13T07:53:30.833Z,45
2017-10-13T07:54:39.673Z,45
2017-10-13T07:55:48.513Z,45
2017-10-13T07:56:57.693Z,45
2017-10-13T07:58:06.864Z,50
2017-10-13T07:59:15.704Z,50
2017-10-13T08:00:24.542Z,50
2017-10-13T08:01:33.384Z,50
2017-10-13T08:02:42.221Z,45
2017-10-13T08:03:51.062Z,45
2017-10-13T08:04:59.902Z,45
2017-10-13T08:06:08.741Z,45
2017-10-13T08:07:17.579Z,45
2017-10-13T08:08:26.417Z,45
2017-10-13T08:09:35.257Z,45
2017-10-13T08:10:44.095Z,45
2017-10-13T08:11:52.935Z,45
2017-10-13T08:13:01.772Z,45
2017-10-13T08:14:10.613Z,45
2017-10-13T08:15:19.456Z,45
2017-10-13T08:16:28.293Z,45
2017-10-13T08:17:37.135Z,45
2017-10-13T08:18:45.970Z,50
2017-10-13T08:19:54.810Z,50
2017-10-13T08:21:03.648Z,50
2017-10-13T08:22:12.828Z,50
2017-10-13T08:23:21.668Z,50
2017-10-13T08:24:30.843Z,45
2017-10-13T08:25:39.683Z,45
2017-10-13T08:26:48.524Z,50
2017-10-13T08:27:57.364Z,45
2017-10-13T08:29:06.200Z,45
2017-10-13T08:30:15.505Z,50
2017-10-13T08:31:24.340Z,45
2017-10-13T08:32:33.527Z,45
2017-10-13T08:33:42.371Z,45
2017-10-13T08:34:51.213Z,45
2017-10-13T08:36:00.053Z,45
2017-10-13T08:37:09.220Z,40
2017-10-13T08:38:18.060Z,45
2017-10-13T08:39:26.902Z,45
2017-10-13T08:40:35.747Z,45
2017-10-13T08:41:44.583Z,45
2017-10-13T08:42:53.420Z,45
2017-10-13T08:44:02.264Z,45
2017-10-13T08:45:11.098Z,60
2017-10-13T08:46:19.946Z,50
2017-10-13T08:47:29.118Z,55
2017-10-13T08:48:37.952Z,50
2017-10-13T08:49:46.798Z,45
2017-10-13T08:50:55.634Z,45
2017-10-13T08:52:04.474Z,45
2017-10-13T08:53:13.312Z,45
2017-10-13T08:54:22.159Z,65
2017-10-13T08:55:31.036Z,55
2017-10-13T08:56:39.879Z,40
2017-10-13T08:57:48.722Z,55
2017-10-13T08:58:57.563Z,60
2017-10-13T09:00:06.406Z,65
2017-10-13T09:01:15.253Z,65
2017-10-13T09:02:24.089Z,65
2017-10-13T09:03:32.925Z,65
2017-10-13T09:04:41.769Z,65
2017-10-13T09:05:50.640Z,60
2017-10-13T09:06:59.641Z,60
2017-10-13T09:08:08.911Z,55
2017-10-13T09:09:18.158Z,55
2017-10-13T09:10:26.995Z,50
2017-10-13T09:11:35.836Z,55
2017-10-13T09:12:45.088Z,50
2017-10-13T09:13:54.256Z,40
2017-10-13T09:15:03.539Z,55
2017-10-13T09:16:12.479Z,40
2017-10-13T09:17:21.805Z,40
2017-10-13T09:18:30.797Z,45
2017-10-13T09:19:39.939Z,50
2017-10-13T09:20:48.777Z,55
2017-10-13T09:21:57.616Z,45
2017-10-13T09:23:06.474Z,35
2017-10-13T09:24:15.384Z,40
2017-10-13T09:25:24.231Z,45
2017-10-13T09:26:33.072Z,35
2017-10-13T09:27:41.914Z,35
2017-10-13T09:28:50.756Z,45
2017-10-13T09:29:59.940Z,40
2017-10-13T09:31:08.777Z,45
2017-10-13T09:32:17.617Z,40
2017-10-13T09:33:26.754Z,45
2017-10-13T09:34:36.139Z,45
2017-10-13T09:35:44.999Z,50
2017-10-13T09:36:53.944Z,50
2017-10-13T09:38:02.896Z,50
2017-10-13T09:39:11.746Z,75
2017-10-13T09:40:20.588Z,65
2017-10-13T09:41:29.460Z,65
2017-10-13T09:42:38.324Z,70
2017-10-13T09:43:47.163Z,60
2017-10-13T09:44:55.998Z,55
2017-10-13T09:46:04.845Z,50
2017-10-13T09:47:13.790Z,55
2017-10-13T09:48:22.626Z,55
2017-10-13T09:49:31.739Z,55
2017-10-13T09:50:40.574Z,45
2017-10-13T09:51:49.414Z,50
2017-10-13T09:52:58.254Z,45
2017-10-13T09:54:07.098Z,50
2017-10-13T09:55:16.024Z,55
2017-10-13T09:56:24.898Z,45
2017-10-13T09:57:33.824Z,45
2017-10-13T09:58:42.848Z,45
2017-10-13T09:59:51.698Z,50
2017-10-13T10:01:00.540Z,55
2017-10-13T10:02:09.450Z,45
2017-10-13T10:03:18.491Z,55
2017-10-13T10:04:27.419Z,50
2017-10-13T10:05:36.254Z,65
2017-10-13T10:06:45.871Z,75
2017-10-13T10:07:54.732Z,80
2017-10-13T10:09:03.833Z,70
2017-10-13T10:10:12.910Z,55
2017-10-13T10:11:22.083Z,60
2017-10-13T10:12:30.929Z,55
2017-10-13T10:13:39.772Z,60
2017-10-13T10:14:48.612Z,70
2017-10-13T10:15:57.453Z,70
2017-10-13T10:17:06.444Z,50
2017-10-13T10:18:15.309Z,55
2017-10-13T10:19:24.516Z,75
2017-10-13T10:20:33.386Z,55
2017-10-13T10:21:42.282Z,55
2017-10-13T10:22:52.188Z,60
2017-10-13T10:24:01.029Z,70
2017-10-13T10:25:09.994Z,65
2017-10-13T10:26:18.852Z,75
2017-10-13T10:27:27.713Z,65
2017-10-13T10:28:36.664Z,75
2017-10-13T10:29:45.518Z,75
2017-10-13T10:30:54.402Z,60
2017-10-13T10:32:03.282Z,45
2017-10-13T10:33:12.139Z,55
2017-10-13T10:34:21.002Z,80
2017-10-13T10:35:29.870Z,60
2017-10-13T10:36:39.094Z,60
2017-10-13T10:37:47.958Z,65
2017-10-13T10:38:56.818Z,80
2017-10-13T10:40:05.677Z,55
2017-10-13T10:41:14.537Z,50
2017-10-13T10:42:23.408Z,40
2017-10-13T10:43:32.268Z,45
2017-10-13T10:44:41.129Z,75
2017-10-13T10:45:50.358Z,45
2017-10-13T10:46:59.209Z,35
2017-10-13T10:48:08.077Z,35
2017-10-13T10:49:16.933Z,40
2017-10-13T10:50:25.788Z,50
2017-10-13T10:51:34.651Z,50
2017-10-13T10:52:43.521Z,45
2017-10-13T10:53:52.393Z,35
2017-10-13T10:55:01.585Z,25
2017-10-13T10:56:10.449Z,30
2017-10-13T10:57:19.330Z,35
2017-10-13T10:58:28.186Z,40
2017-10-13T10:59:37.410Z,30
2017-10-13T11:00:46.379Z,30
2017-10-13T11:01:55.249Z,30
2017-10-13T11:03:04.092Z,50
2017-10-13T11:04:12.930Z,45
2017-10-13T11:05:21.772Z,35
2017-10-13T11:06:30.607Z,40
2017-10-13T11:07:39.455Z,40
2017-10-13T11:08:48.294Z,35
2017-10-13T11:09:57.930Z,35
2017-10-13T11:11:07.659Z,55
2017-10-13T11:12:17.244Z,45
2017-10-13T11:13:26.563Z,50
2017-10-13T11:14:36.172Z,40
2017-10-13T11:15:45.301Z,35
2017-10-13T11:16:54.562Z,30
2017-10-13T11:18:04.583Z,30
2017-10-13T11:19:14.110Z,30
2017-10-13T11:20:23.498Z,35
2017-10-13T11:21:32.380Z,40
2017-10-13T11:22:41.297Z,45
2017-10-13T11:23:50.159Z,50
2017-10-13T11:24:59.396Z,50
2017-10-13T11:26:08.446Z,45
2017-10-13T11:27:17.325Z,30
2017-10-13T11:28:26.242Z,35
2017-10-13T11:29:35.074Z,30
2017-10-13T11:30:43.919Z,30
2017-10-13T11:31:52.760Z,35
2017-10-13T11:33:01.601Z,40
2017-10-13T11:34:10.447Z,50
2017-10-13T11:35:19.287Z,50
2017-10-13T11:36:28.127Z,50
2017-10-13T11:37:38.934Z,55
2017-10-13T11:38:48.114Z,40
2017-10-13T11:39:56.953Z,35
2017-10-13T11:41:05.792Z,30
2017-10-13T11:42:14.637Z,35
2017-10-13T11:43:23.475Z,40
2017-10-13T11:44:32.321Z,35
2017-10-13T11:45:41.499Z,35
2017-10-13T11:46:50.336Z,30
2017-10-13T11:47:59.182Z,30
2017-10-13T11:49:08.024Z,30
2017-10-13T11:50:16.865Z,35
2017-10-13T11:51:25.707Z,35
2017-10-13T11:52:34.546Z,30
2017-10-13T11:53:43.391Z,30
2017-10-13T11:54:52.229Z,35
2017-10-13T11:56:01.065Z,40
2017-10-13T11:57:09.911Z,35
2017-10-13T11:58:18.752Z,30
2017-10-13T11:59:27.934Z,30
2017-10-13T12:00:36.787Z,30
2017-10-13T12:01:45.964Z,30
2017-10-13T12:02:54.802Z,30
2017-10-13T12:04:03.645Z,35
2017-10-13T12:05:12.488Z,35
2017-10-13T12:06:21.327Z,45
2017-10-13T12:07:30.169Z,40
2017-10-13T12:08:39.006Z,40
2017-10-13T12:09:47.847Z,40
2017-10-13T12:10:56.693Z,40
2017-10-13T12:12:05.532Z,40
2017-10-13T12:13:14.372Z,40
2017-10-13T12:14:23.207Z,40
2017-10-13T12:15:32.052Z,40
2017-10-13T12:16:40.888Z,45
2017-10-13T12:17:49.735Z,45
2017-10-13T12:18:58.577Z,45
2017-10-13T12:20:07.753Z,45
2017-10-13T12:21:16.596Z,40
2017-10-13T12:22:25.434Z,40
2017-10-13T12:23:34.276Z,45
2017-10-13T12:24:43.113Z,50
2017-10-13T12:25:51.955Z,45
2017-10-13T12:27:00.791Z,45
2017-10-13T12:28:09.977Z,50
2017-10-13T12:29:18.819Z,40
2017-10-13T12:30:27.677Z,40
2017-10-13T12:31:36.498Z,45
2017-10-13T12:32:45.339Z,50
2017-10-13T12:33:54.518Z,50
2017-10-13T12:35:03.360Z,55
2017-10-13T12:36:12.200Z,50
2017-10-13T12:37:21.036Z,50
2017-10-13T12:38:30.251Z,55
2017-10-13T12:39:39.096Z,55
2017-10-13T12:40:47.936Z,50
2017-10-13T12:41:56.779Z,55
2017-10-13T12:43:05.618Z,50
2017-10-13T12:44:14.465Z,55
2017-10-13T12:45:23.304Z,55
2017-10-13T12:46:32.493Z,40
2017-10-13T12:47:41.331Z,35
2017-10-13T12:48:50.171Z,35
2017-10-13T12:49:59.012Z,35
2017-10-13T12:51:07.867Z,35
2017-10-13T12:52:16.707Z,35
2017-10-13T12:53:25.550Z,35
2017-10-13T12:54:34.391Z,35
2017-10-13T12:55:43.233Z,40
2017-10-13T12:56:52.076Z,40
2017-10-13T12:58:00.914Z,40
2017-10-13T12:59:09.755Z,40
2017-10-13T13:00:18.595Z,35
2017-10-13T13:01:27.441Z,30
2017-10-13T13:02:36.280Z,30
2017-10-13T13:03:45.116Z,30
2017-10-13T13:04:53.962Z,35
2017-10-13T13:06:02.803Z,30
2017-10-13T13:07:11.641Z,30
2017-10-13T13:08:20.493Z,30
2017-10-13T13:09:29.320Z,30
2017-10-13T13:10:38.164Z,30
2017-10-13T13:11:47.003Z,40
2017-10-13T13:12:55.844Z,45
2017-10-13T13:14:04.682Z,45
2017-10-13T13:15:13.528Z,45
2017-10-13T13:16:22.724Z,45
2017-10-13T13:17:31.569Z,45
2017-10-13T13:18:40.417Z,40
2017-10-13T13:19:49.249Z,40
2017-10-13T13:20:58.090Z,40
2017-10-13T13:22:06.931Z,30
2017-10-13T13:23:15.768Z,30
2017-10-13T13:24:24.613Z,30
2017-10-13T13:25:33.461Z,25
2017-10-13T13:26:42.294Z,25
2017-10-13T13:27:51.468Z,30
2017-10-13T13:29:00.310Z,40
2017-10-13T13:30:09.152Z,40
2017-10-13T13:31:17.996Z,45
2017-10-13T13:32:26.836Z,40
2017-10-13T13:33:35.674Z,40
2017-10-13T13:34:44.519Z,40
2017-10-13T13:35:53.366Z,30
2017-10-13T13:37:02.198Z,25
2017-10-13T13:38:11.041Z,30
2017-10-13T13:39:19.889Z,35
2017-10-13T13:40:28.722Z,40
2017-10-13T13:41:37.563Z,40
2017-10-13T13:42:46.409Z,45
2017-10-13T13:43:55.248Z,50
2017-10-13T13:45:04.088Z,45
2017-10-13T13:46:12.928Z,45
2017-10-13T13:47:21.768Z,45
2017-10-13T13:48:30.611Z,45
2017-10-13T13:49:39.445Z,45
2017-10-13T13:50:48.291Z,45
2017-10-13T13:51:57.128Z,45
2017-10-13T13:53:05.971Z,45
2017-10-13T13:54:14.820Z,40
2017-10-13T13:55:23.660Z,40
2017-10-13T13:56:32.497Z,40
2017-10-13T13:57:41.332Z,40
2017-10-13T13:58:50.178Z,35
2017-10-13T13:59:59.018Z,30
2017-10-13T14:01:07.861Z,30
2017-10-13T14:02:16.704Z,25
2017-10-13T14:03:25.540Z,25
2017-10-13T14:04:34.384Z,25
2017-10-13T14:05:43.228Z,25
2017-10-13T14:06:52.074Z,25
2017-10-13T14:08:00.906Z,25
2017-10-13T14:09:09.768Z,20
2017-10-13T14:10:18.589Z,25
2017-10-13T14:11:27.431Z,25
2017-10-13T14:12:36.274Z,25
2017-10-13T14:13:45.111Z,30
2017-10-13T14:14:53.956Z,30
2017-10-13T14:16:03.137Z,25
2017-10-13T14:17:11.985Z,25
2017-10-13T14:18:20.821Z,25
2017-10-13T14:19:29.665Z,25
2017-10-13T14:20:38.499Z,25
2017-10-13T14:21:47.341Z,30
2017-10-13T14:22:56.186Z,35
2017-10-13T14:24:05.028Z,35
2017-10-13T14:25:13.869Z,35
2017-10-13T14:26:22.711Z,35
2017-10-13T14:27:31.551Z,35
2017-10-13T14:28:40.398Z,35
2017-10-13T14:29:49.239Z,30
2017-10-13T14:30:58.080Z,30
2017-10-13T14:32:06.916Z,30
2017-10-13T14:33:15.762Z,25
2017-10-13T14:34:24.601Z,25
2017-10-13T14:35:33.449Z,25
2017-10-13T14:36:42.287Z,20
2017-10-13T14:37:51.467Z,20
2017-10-13T14:39:00.303Z,15
2017-10-13T14:40:09.152Z,15
2017-10-13T14:41:17.992Z,20
2017-10-13T14:42:26.830Z,20
2017-10-13T14:43:35.672Z,15
2017-10-13T14:44:44.510Z,15
2017-10-13T14:45:53.353Z,15
2017-10-13T14:47:02.191Z,15
2017-10-13T14:48:11.379Z,15
2017-10-13T14:49:20.217Z,15
2017-10-13T14:50:29.065Z,15
2017-10-13T14:51:37.902Z,15
2017-10-13T14:52:46.744Z,20
2017-10-13T14:53:55.581Z,20
2017-10-13T14:55:04.421Z,15
2017-10-13T14:56:13.263Z,15
2017-10-13T14:57:22.105Z,15
2017-10-13T14:58:30.945Z,15
2017-10-13T14:59:39.784Z,15
2017-10-13T15:00:48.625Z,15
2017-10-13T15:01:57.467Z,15
2017-10-13T15:03:06.302Z,20
2017-10-13T15:04:15.143Z,20
2017-10-13T15:05:23.980Z,20
2017-10-13T15:06:33.163Z,20
2017-10-13T15:07:42.005Z,20
2017-10-13T15:08:50.846Z,20
2017-10-13T15:09:59.685Z,20
2017-10-13T15:11:08.525Z,20
2017-10-13T15:12:17.367Z,15
2017-10-13T15:13:26.208Z,15
2017-10-13T15:14:35.054Z,15
2017-10-13T15:15:43.895Z,15
2017-10-13T15:16:52.737Z,15
2017-10-13T15:18:01.578Z,10
2017-10-13T15:19:10.422Z,10
2017-10-13T15:20:19.262Z,10
2017-10-13T15:21:28.103Z,10
2017-10-13T15:22:36.949Z,5
2017-10-13T15:23:45.793Z,5
2017-10-13T15:24:54.633Z,10
2017-10-13T15:26:03.473Z,10
2017-10-13T15:27:12.314Z,10
2017-10-13T15:28:21.157Z,10
2017-10-13T15:29:29.996Z,5
2017-10-13T15:30:38.849Z,5
2017-10-13T15:31:47.676Z,5
2017-10-13T15:32:56.519Z,5
2017-10-13T15:34:05.360Z,5
2017-10-13T15:35:14.213Z,10
2017-10-13T15:36:23.386Z,5
2017-10-13T15:37:32.223Z,5
2017-10-13T15:38:41.064Z,5
2017-10-13T15:39:49.906Z,5
2017-10-13T15:40:58.746Z,5
2017-10-13T15:42:07.587Z,5
2017-10-13T15:43:16.433Z,5
2017-10-13T15:44:25.269Z,5
2017-10-13T15:45:34.176Z,5
2017-10-13T15:46:43.061Z,5
2017-10-13T15:47:51.898Z,5
2017-10-13T15:49:00.748Z,5
2017-10-13T15:50:09.657Z,0
2017-10-13T15:51:18.862Z,0
2017-10-13T15:52:27.822Z,0
2017-10-13T15:53:36.895Z,0
2017-10-13T15:54:45.867Z,0
2017-10-13T15:55:55.105Z,0
2017-10-13T15:57:04.057Z,0
2017-10-13T15:58:12.905Z,0
2017-10-13T15:59:21.745Z,0
2017-10-13T16:00:30.585Z,0
2017-10-13T16:01:39.639Z,0
2017-10-13T16:02:48.484Z,0
2017-10-13T16:03:57.574Z,0
2017-10-13T16:05:06.418Z,0
2017-10-13T16:06:15.259Z,0
2017-10-13T16:07:24.621Z,0
2017-10-13T16:08:33.463Z,0
2017-10-13T16:09:42.308Z,0
2017-10-13T16:10:51.630Z,0
2017-10-13T16:12:00.474Z,0
2017-10-13T16:13:09.311Z,0
2017-10-13T16:14:18.157Z,0
2017-10-13T16:15:26.999Z,0
2017-10-13T16:16:35.842Z,0
2017-10-13T16:17:44.682Z,0
2017-10-13T16:18:53.635Z,0
2017-10-13T16:20:02.509Z,0
2017-10-13T16:21:11.404Z,0
2017-10-13T16:22:20.277Z,0
2017-10-13T16:23:29.118Z,0
2017-10-13T16:24:37.962Z,0
2017-10-13T16:25:47.051Z,0
2017-10-13T16:26:55.972Z,0
2017-10-13T16:28:04.913Z,0
2017-10-13T16:29:14.272Z,0
2017-10-13T16:30:23.224Z,0
2017-10-13T16:31:32.087Z,0
2017-10-13T16:32:40.934Z,0
2017-10-13T16:33:49.850Z,0
2017-10-13T16:34:58.693Z,0
2017-10-13T16:36:07.584Z,0
2017-10-13T16:37:16.432Z,0
2017-10-13T16:38:25.278Z,0
2017-10-13T16:39:34.115Z,0